createdAt,value
2017-12-01T00:00:19.285Z,29.87
2017-12-01T00:02:46.876Z,32.67
2017-12-01T00:05:14.405Z,30.23
2017-12-01T00:07:41.937Z,31.40
2017-12-01T00:10:09.521Z,27.90
2017-12-01T00:12:37.058Z,27.50
2017-12-01T00:15:04.588Z,31.23
2017-12-01T00:17:32.141Z,32.07
2017-12-01T00:19:59.686Z,40.93
2017-12-01T00:22:27.232Z,30.00
2017-12-01T00:24:54.816Z,29.60
2017-12-01T00:27:22.383Z,28.67
2017-12-01T00:29:49.920Z,29.87
2017-12-01T00:32:17.454Z,29.20
2017-12-01T00:34:45.046Z,29.00
2017-12-01T00:37:12.578Z,32.13
2017-12-01T00:39:40.118Z,29.17
2017-12-01T00:42:07.692Z,28.97
2017-12-01T00:44:35.226Z,28.60
2017-12-01T00:47:02.752Z,29.07
2017-12-01T00:49:30.349Z,30.93
2017-12-01T00:51:57.882Z,31.47
2017-12-01T00:54:25.413Z,32.67
2017-12-01T00:56:53.069Z,32.67
2017-12-01T00:59:20.615Z,32.90
2017-12-01T01:01:48.141Z,31.17
2017-12-01T01:04:15.688Z,29.17
2017-12-01T01:06:43.234Z,31.40
2017-12-01T01:09:10.760Z,30.60
2017-12-01T01:11:38.354Z,28.80
2017-12-01T01:14:05.884Z,29.27
2017-12-01T01:16:33.407Z,28.00
2017-12-01T01:19:00.980Z,28.23
2017-12-01T01:21:28.525Z,28.03
2017-12-01T01:23:56.069Z,27.60
2017-12-01T01:26:23.631Z,29.70
2017-12-01T01:28:51.174Z,29.77
2017-12-01T01:31:18.736Z,29.53
2017-12-01T01:33:46.265Z,33.07
2017-12-01T01:36:13.808Z,30.80
2017-12-01T01:38:41.327Z,30.83
2017-12-01T01:41:09.005Z,31.50
2017-12-01T01:43:36.520Z,33.33
2017-12-01T01:46:04.064Z,33.50
2017-12-01T01:48:31.663Z,35.70
2017-12-01T01:50:59.199Z,35.30
2017-12-01T01:53:26.750Z,31.70
2017-12-01T01:55:54.314Z,35.50
2017-12-01T01:58:21.884Z,34.23
2017-12-01T02:00:49.423Z,32.87
2017-12-01T02:03:16.946Z,32.57
2017-12-01T02:05:44.544Z,32.77
2017-12-01T02:08:12.072Z,33.43
2017-12-01T02:10:39.583Z,31.60
2017-12-01T02:13:07.186Z,35.00
2017-12-01T02:15:34.726Z,33.20
2017-12-01T02:18:02.288Z,38.13
2017-12-01T02:20:29.893Z,32.27
2017-12-01T02:22:57.429Z,32.07
2017-12-01T02:25:24.951Z,33.30
2017-12-01T02:27:52.523Z,31.37
2017-12-01T02:30:20.064Z,30.77
2017-12-01T02:32:47.649Z,30.80
2017-12-01T02:35:15.187Z,29.97
2017-12-01T02:37:42.863Z,31.00
2017-12-01T02:40:10.416Z,33.37
2017-12-01T02:42:37.968Z,30.83
2017-12-01T02:45:05.590Z,29.93
2017-12-01T02:47:33.150Z,29.33
2017-12-01T02:50:00.685Z,29.50
2017-12-01T02:52:28.257Z,32.00
2017-12-01T02:54:55.801Z,30.87
2017-12-01T02:57:23.397Z,32.50
2017-12-01T02:59:50.929Z,35.77
2017-12-01T03:02:18.464Z,34.20
2017-12-01T03:04:46.048Z,34.20
2017-12-01T03:07:13.571Z,34.17
2017-12-01T03:09:41.132Z,35.53
2017-12-01T03:12:08.729Z,35.70
2017-12-01T03:14:36.264Z,35.30
2017-12-01T03:17:03.803Z,36.97
2017-12-01T03:19:31.365Z,38.90
2017-12-01T03:21:58.913Z,36.33
2017-12-01T03:24:26.516Z,34.30
2017-12-01T03:26:54.065Z,34.17
2017-12-01T03:29:21.609Z,33.00
2017-12-01T03:31:49.208Z,34.20
2017-12-01T03:34:16.742Z,35.67
2017-12-01T03:36:44.288Z,35.47
2017-12-01T03:39:11.885Z,37.13
2017-12-01T03:41:39.433Z,30.00
2017-12-01T03:44:06.997Z,38.33
2017-12-01T03:46:34.579Z,42.17
2017-12-01T03:49:02.202Z,40.37
2017-12-01T03:51:29.748Z,39.77
2017-12-01T03:53:57.275Z,36.57
2017-12-01T03:56:24.829Z,40.50
2017-12-01T03:58:52.992Z,43.10
2017-12-01T04:01:20.577Z,43.03
2017-12-01T04:03:48.123Z,37.93
2017-12-01T04:06:15.815Z,39.00
2017-12-01T04:08:43.369Z,41.43
2017-12-01T04:11:10.964Z,37.50
2017-12-01T04:13:38.620Z,31.90
2017-12-01T04:16:06.168Z,39.80
2017-12-01T04:18:33.712Z,37.80
2017-12-01T04:21:01.313Z,33.73
2017-12-01T04:23:28.878Z,42.03
2017-12-01T04:25:56.420Z,40.83
2017-12-01T04:28:23.985Z,45.30
2017-12-01T04:30:51.572Z,39.87
2017-12-01T04:33:19.133Z,44.20
2017-12-01T04:35:46.701Z,41.10
2017-12-01T04:38:14.294Z,34.13
2017-12-01T04:40:41.859Z,42.00
2017-12-01T04:43:09.452Z,36.90
2017-12-01T04:45:36.991Z,33.30
2017-12-01T04:48:04.541Z,40.63
2017-12-01T04:50:32.287Z,40.63
2017-12-01T04:52:59.828Z,42.83
2017-12-01T04:55:27.375Z,29.13
2017-12-01T04:57:54.972Z,40.80
2017-12-01T05:00:22.508Z,40.80
2017-12-01T05:02:50.069Z,39.53
2017-12-01T05:05:17.793Z,33.07
2017-12-01T05:07:45.331Z,41.00
2017-12-01T05:10:12.881Z,35.97
2017-12-01T05:12:40.557Z,37.33
2017-12-01T05:15:08.159Z,39.47
2017-12-01T05:17:35.676Z,39.07
2017-12-01T05:20:03.422Z,39.57
2017-12-01T05:22:30.958Z,29.83
2017-12-01T05:24:58.501Z,36.93
2017-12-01T05:27:26.085Z,39.90
2017-12-01T05:29:53.632Z,28.77
2017-12-01T05:32:21.185Z,39.93
2017-12-01T05:34:48.760Z,30.17
2017-12-01T05:37:16.348Z,33.67
2017-12-01T05:39:43.902Z,39.50
2017-12-01T05:42:11.453Z,35.40
2017-12-01T05:44:39.026Z,33.80
2017-12-01T05:47:06.551Z,37.70
2017-12-01T05:49:34.109Z,34.77
2017-12-01T05:52:01.670Z,35.80
2017-12-01T05:54:29.257Z,35.77
2017-12-01T05:56:56.848Z,35.00
2017-12-01T05:59:24.426Z,27.23
2017-12-01T06:01:51.957Z,31.50
2017-12-01T06:04:19.628Z,35.57
2017-12-01T06:06:47.183Z,35.30
2017-12-01T06:09:14.712Z,27.80
2017-12-01T06:11:42.327Z,31.17
2017-12-01T06:14:09.919Z,24.07
2017-12-01T06:16:37.453Z,35.70
2017-12-01T06:19:05.005Z,31.00
2017-12-01T06:21:32.565Z,33.03
2017-12-01T06:24:00.105Z,33.43
2017-12-01T06:26:27.704Z,31.87
2017-12-01T06:28:55.253Z,26.47
2017-12-01T06:31:22.997Z,29.57
2017-12-01T06:33:50.541Z,24.93
2017-12-01T06:36:18.149Z,25.93
2017-12-01T06:38:45.712Z,31.20
2017-12-01T06:41:13.280Z,28.50
2017-12-01T06:43:40.862Z,27.00
2017-12-01T06:46:08.400Z,30.13
2017-12-01T06:48:35.997Z,30.03
2017-12-01T06:51:03.544Z,24.97
2017-12-01T06:53:31.065Z,27.60
2017-12-01T06:55:58.656Z,27.00
2017-12-01T06:58:26.223Z,27.37
2017-12-01T07:00:53.912Z,27.40
2017-12-01T07:03:21.480Z,28.63
2017-12-01T07:05:49.019Z,27.77
2017-12-01T07:08:16.585Z,27.13
2017-12-01T07:10:44.103Z,25.87
2017-12-01T07:13:11.782Z,25.00
2017-12-01T07:15:39.301Z,24.20
2017-12-01T07:18:06.821Z,25.30
2017-12-01T07:20:34.492Z,16.97
2017-12-01T07:23:02.017Z,18.43
2017-12-01T07:25:29.548Z,27.47
2017-12-01T07:27:57.317Z,25.90
2017-12-01T07:30:24.832Z,22.63
2017-12-01T07:32:52.345Z,26.23
2017-12-01T07:35:20.000Z,29.27
2017-12-01T07:37:47.688Z,27.70
2017-12-01T07:40:15.225Z,27.67
2017-12-01T07:42:42.816Z,29.07
2017-12-01T07:48:14.456Z,26.53
2017-12-01T07:50:42.018Z,25.73
2017-12-01T07:53:09.554Z,21.87
2017-12-01T07:55:37.132Z,22.93
2017-12-01T07:58:04.673Z,20.70
2017-12-01T08:00:32.199Z,15.87
2017-12-01T08:02:59.866Z,24.47
2017-12-01T08:05:27.398Z,24.10
2017-12-01T08:07:54.934Z,24.60
2017-12-01T08:10:22.505Z,26.37
2017-12-01T08:12:50.047Z,25.93
2017-12-01T08:15:17.624Z,27.03
2017-12-01T08:17:45.166Z,27.17
2017-12-01T08:20:19.832Z,26.07
2017-12-01T08:22:53.189Z,26.20
2017-12-01T08:25:26.455Z,24.20
2017-12-01T08:27:53.984Z,26.67
2017-12-01T08:30:21.560Z,23.87
2017-12-01T08:32:49.105Z,25.63
2017-12-01T08:35:16.612Z,28.07
2017-12-01T08:37:44.188Z,26.27
2017-12-01T08:40:11.925Z,27.60
2017-12-01T08:42:39.449Z,25.50
2017-12-01T08:45:06.997Z,28.00
2017-12-01T08:47:34.735Z,25.87
2017-12-01T08:50:02.252Z,22.93
2017-12-01T08:52:29.787Z,27.40
2017-12-01T08:54:57.333Z,32.67
2017-12-01T08:57:24.856Z,26.77
2017-12-01T08:59:52.420Z,25.83
2017-12-01T09:02:19.968Z,27.67
2017-12-01T09:04:47.649Z,27.77
2017-12-01T09:07:15.165Z,26.30
2017-12-01T09:09:42.675Z,27.60
2017-12-01T09:12:10.253Z,24.20
2017-12-01T09:14:37.814Z,25.83
2017-12-01T09:17:05.358Z,28.63
2017-12-01T09:19:32.922Z,27.63
2017-12-01T09:22:00.476Z,27.10
2017-12-01T09:24:28.052Z,22.37
2017-12-01T09:26:55.627Z,28.70
2017-12-01T09:29:23.153Z,27.23
2017-12-01T09:31:50.727Z,22.40
2017-12-01T09:34:18.248Z,24.30
2017-12-01T09:36:46.000Z,20.77
2017-12-01T09:39:13.521Z,23.40
2017-12-01T09:41:41.049Z,20.63
2017-12-01T09:44:08.764Z,22.73
2017-12-01T09:46:36.303Z,26.83
2017-12-01T09:49:03.827Z,24.43
2017-12-01T09:51:31.355Z,17.37
2017-12-01T09:53:58.878Z,23.60
2017-12-01T09:56:26.585Z,19.93
2017-12-01T09:58:54.110Z,21.17
2017-12-01T10:01:21.621Z,21.23
2017-12-01T10:03:49.186Z,20.30
2017-12-01T10:06:16.763Z,23.53
2017-12-01T10:08:44.337Z,15.83
2017-12-01T10:11:11.862Z,21.37
2017-12-01T10:13:39.393Z,25.77
2017-12-01T10:16:06.940Z,22.20
2017-12-01T10:18:34.512Z,21.70
2017-12-01T10:21:02.039Z,23.97
2017-12-01T10:23:29.551Z,21.27
2017-12-01T10:25:57.091Z,24.17
2017-12-01T10:28:24.613Z,21.60
2017-12-01T10:30:52.147Z,24.03
2017-12-01T10:33:19.860Z,24.17
2017-12-01T10:35:47.393Z,25.73
2017-12-01T10:38:15.000Z,19.50
2017-12-01T10:40:42.592Z,21.80
2017-12-01T10:43:10.123Z,18.23
2017-12-01T10:45:37.645Z,25.40
2017-12-01T10:48:05.300Z,24.27
2017-12-01T10:50:32.823Z,26.10
2017-12-01T10:53:00.344Z,22.90
2017-12-01T10:55:27.897Z,25.17
2017-12-01T10:57:55.415Z,23.20
2017-12-01T11:00:22.968Z,19.57
2017-12-01T11:02:50.480Z,22.13
2017-12-01T11:05:18.047Z,22.87
2017-12-01T11:07:45.573Z,24.80
2017-12-01T11:10:13.084Z,26.10
2017-12-01T11:12:40.625Z,23.50
2017-12-01T11:15:08.150Z,22.00
2017-12-01T11:17:35.730Z,20.70
2017-12-01T11:20:03.252Z,21.73
2017-12-01T11:22:30.768Z,21.73
2017-12-01T11:24:58.342Z,21.87
2017-12-01T11:27:25.859Z,22.47
2017-12-01T11:29:53.369Z,21.20
2017-12-01T11:32:20.917Z,22.67
2017-12-01T11:34:48.437Z,19.50
2017-12-01T11:37:15.972Z,20.97
2017-12-01T11:39:43.504Z,21.40
2017-12-01T11:42:11.188Z,17.97
2017-12-01T11:44:38.707Z,19.43
2017-12-01T11:47:06.226Z,20.80
2017-12-01T11:49:33.899Z,21.13
2017-12-01T11:52:01.426Z,18.53
2017-12-01T11:54:28.956Z,23.80
2017-12-01T11:56:56.494Z,19.77
2017-12-01T11:59:24.029Z,20.37
2017-12-01T12:01:51.598Z,19.83
2017-12-01T12:04:19.122Z,18.03
2017-12-01T12:06:46.692Z,17.93
2017-12-01T12:09:14.223Z,17.87
2017-12-01T12:11:41.828Z,20.40
2017-12-01T12:14:09.359Z,17.23
2017-12-01T12:16:36.896Z,18.10
2017-12-01T12:19:04.477Z,17.40
2017-12-01T12:21:32.013Z,17.70
2017-12-01T12:23:59.539Z,17.57
2017-12-01T12:26:27.125Z,17.80
2017-12-01T12:28:54.678Z,19.07
2017-12-01T12:31:22.207Z,16.33
2017-12-01T12:33:49.781Z,17.40
2017-12-01T12:36:17.316Z,17.67
2017-12-01T12:38:44.845Z,19.47
2017-12-01T12:41:12.539Z,11.27
2017-12-01T12:43:40.067Z,17.90
2017-12-01T12:46:07.609Z,15.50
2017-12-01T12:48:35.178Z,17.70
2017-12-01T12:51:02.723Z,17.20
2017-12-01T12:53:30.296Z,18.47
2017-12-01T12:55:57.839Z,17.37
2017-12-01T12:58:25.417Z,18.07
2017-12-01T13:00:53.008Z,16.80
2017-12-01T13:03:20.533Z,17.90
2017-12-01T13:05:48.087Z,17.67
2017-12-01T13:08:15.634Z,18.47
2017-12-01T13:10:43.238Z,19.03
2017-12-01T13:13:10.799Z,20.80
2017-12-01T13:15:38.366Z,23.20
2017-12-01T13:18:05.936Z,18.80
2017-12-01T13:20:33.459Z,18.47
2017-12-01T13:23:01.002Z,19.17
2017-12-01T13:25:28.691Z,17.83
2017-12-01T13:27:56.240Z,18.20
2017-12-01T13:30:23.789Z,18.00
2017-12-01T13:32:51.360Z,18.47
2017-12-01T13:35:18.985Z,20.90
2017-12-01T13:37:46.533Z,20.20
2017-12-01T13:40:14.077Z,20.77
2017-12-01T13:42:41.604Z,19.07
2017-12-01T13:45:09.185Z,17.70
2017-12-01T13:47:36.724Z,18.77
2017-12-01T13:50:04.271Z,19.13
2017-12-01T13:52:31.831Z,19.50
2017-12-01T13:54:59.525Z,19.70
2017-12-01T13:57:27.044Z,18.07
2017-12-01T13:59:54.580Z,16.57
2017-12-01T14:02:22.144Z,19.43
2017-12-01T14:04:49.701Z,18.63
2017-12-01T14:07:17.272Z,18.30
2017-12-01T14:09:44.798Z,18.00
2017-12-01T14:12:12.355Z,16.23
2017-12-01T14:14:39.943Z,21.47
2017-12-01T14:17:07.480Z,19.23
2017-12-01T14:19:35.249Z,17.97
2017-12-01T14:22:02.771Z,18.50
2017-12-01T14:24:30.297Z,21.30
2017-12-01T14:26:57.885Z,18.90
2017-12-01T14:29:25.396Z,18.50
2017-12-01T14:31:52.912Z,19.40
2017-12-01T14:34:20.682Z,19.40
2017-12-01T14:36:48.226Z,21.00
2017-12-01T14:39:15.752Z,17.57
2017-12-01T14:41:43.325Z,17.40
2017-12-01T14:44:10.841Z,14.80
2017-12-01T14:46:38.382Z,13.90
2017-12-01T14:49:06.736Z,15.97
2017-12-01T14:51:34.266Z,14.13
2017-12-01T14:54:01.894Z,16.70
2017-12-01T14:56:29.448Z,17.00
2017-12-01T14:58:57.020Z,16.00
2017-12-01T15:01:25.422Z,17.53
2017-12-01T15:03:52.977Z,31.80
2017-12-01T15:06:20.525Z,24.57
2017-12-01T15:08:48.104Z,23.30
2017-12-01T15:11:15.634Z,21.53
2017-12-01T15:13:43.148Z,19.83
2017-12-01T15:16:10.729Z,17.90
2017-12-01T15:18:38.258Z,17.43
2017-12-01T15:21:05.771Z,17.70
2017-12-01T15:23:33.320Z,19.53
2017-12-01T15:26:00.836Z,18.80
2017-12-01T15:28:28.570Z,19.47
2017-12-01T15:30:56.088Z,18.20
2017-12-01T15:33:23.599Z,19.80
2017-12-01T15:35:51.237Z,18.60
2017-12-01T15:38:18.790Z,21.90
2017-12-01T15:40:46.331Z,19.83
2017-12-01T15:43:13.889Z,20.60
2017-12-01T15:45:41.473Z,18.57
2017-12-01T15:48:09.002Z,18.40
2017-12-01T15:50:36.540Z,21.80
2017-12-01T15:53:04.120Z,19.80
2017-12-01T15:55:31.665Z,23.90
2017-12-01T15:57:59.202Z,22.70
2017-12-01T16:00:26.805Z,23.57
2017-12-01T16:02:54.383Z,23.23
2017-12-01T16:05:21.928Z,25.10
2017-12-01T16:07:49.493Z,25.40
2017-12-01T16:10:17.049Z,22.60
2017-12-01T16:12:44.648Z,22.60
2017-12-01T16:15:12.205Z,21.57
2017-12-01T16:17:39.755Z,21.20
2017-12-01T16:20:07.416Z,22.93
2017-12-01T16:22:34.931Z,24.90
2017-12-01T16:25:02.456Z,24.00
2017-12-01T16:27:30.057Z,23.43
2017-12-01T16:29:57.597Z,23.90
2017-12-01T16:32:25.162Z,24.23
2017-12-01T16:34:52.724Z,31.80
2017-12-01T16:37:20.263Z,26.17
2017-12-01T16:39:47.780Z,26.40
2017-12-01T16:42:15.348Z,30.70
2017-12-01T16:44:42.873Z,30.60
2017-12-01T16:47:10.457Z,28.87
2017-12-01T16:49:37.988Z,24.67
2017-12-01T16:52:05.536Z,24.33
2017-12-01T16:54:33.105Z,23.20
2017-12-01T16:57:00.668Z,23.17
2017-12-01T16:59:28.231Z,26.30
2017-12-01T17:01:55.800Z,26.00
2017-12-01T17:04:23.393Z,25.97
2017-12-01T17:06:50.941Z,24.67
2017-12-01T17:09:18.490Z,27.07
2017-12-01T17:11:46.052Z,26.23
2017-12-01T17:14:13.638Z,28.77
2017-12-01T17:16:41.237Z,29.87
2017-12-01T17:19:08.772Z,27.03
2017-12-01T17:21:36.325Z,27.97
2017-12-01T17:24:03.883Z,27.10
2017-12-01T17:26:31.425Z,25.30
2017-12-01T17:28:59.192Z,26.20
2017-12-01T17:31:26.740Z,25.50
2017-12-01T17:33:54.274Z,28.50
2017-12-01T17:36:21.925Z,26.93
2017-12-01T17:38:49.464Z,25.93
2017-12-01T17:41:17.018Z,23.47
2017-12-01T17:43:44.616Z,22.07
2017-12-01T17:46:12.152Z,20.10
2017-12-01T17:48:39.696Z,22.30
2017-12-01T17:51:07.252Z,23.20
2017-12-01T17:53:35.038Z,37.13
2017-12-01T17:56:02.585Z,35.70
2017-12-01T17:58:30.140Z,29.90
2017-12-01T18:00:57.737Z,29.90
2017-12-01T18:03:25.296Z,27.47
2017-12-01T18:05:52.822Z,27.70
2017-12-01T18:08:20.416Z,28.47
2017-12-01T18:10:47.960Z,29.03
2017-12-01T18:13:15.509Z,24.27
2017-12-01T18:15:43.193Z,28.67
2017-12-01T18:18:10.727Z,27.00
2017-12-01T18:20:38.275Z,28.50
2017-12-01T18:23:05.835Z,27.83
2017-12-01T18:25:33.392Z,30.80
2017-12-01T18:28:00.980Z,31.77
2017-12-01T18:30:28.521Z,28.10
2017-12-01T18:32:56.125Z,30.40
2017-12-01T18:35:23.678Z,28.63
2017-12-01T18:37:51.388Z,28.20
2017-12-01T18:40:18.934Z,28.17
2017-12-01T18:42:46.475Z,28.27
2017-12-01T18:45:14.256Z,31.30
2017-12-01T18:47:41.829Z,29.87
2017-12-01T18:50:09.390Z,35.30
2017-12-01T18:52:36.961Z,27.57
2017-12-01T18:55:04.519Z,26.87
2017-12-01T18:57:32.219Z,29.47
2017-12-01T18:59:59.768Z,29.60
2017-12-01T19:02:27.303Z,30.23
2017-12-01T19:04:54.916Z,28.70
2017-12-01T19:07:22.462Z,26.80
2017-12-01T19:09:50.021Z,29.57
2017-12-01T19:12:17.568Z,31.43
2017-12-01T19:14:45.129Z,28.37
2017-12-01T19:17:12.686Z,29.20
2017-12-01T19:19:40.276Z,31.10
2017-12-01T19:22:07.853Z,33.70
2017-12-01T19:24:35.472Z,28.67
2017-12-01T19:27:03.163Z,29.33
2017-12-01T19:29:30.728Z,26.60
2017-12-01T19:31:58.322Z,29.00
2017-12-01T19:34:25.860Z,27.20
2017-12-01T19:36:53.523Z,30.53
2017-12-01T19:39:21.066Z,32.97
2017-12-01T19:41:48.650Z,30.57
2017-12-01T19:44:16.220Z,30.83
2017-12-01T19:46:43.760Z,28.33
2017-12-01T19:49:11.345Z,30.20
2017-12-01T19:51:38.889Z,27.97
2017-12-01T19:54:06.436Z,28.33
2017-12-01T19:56:34.036Z,26.80
2017-12-01T19:59:01.590Z,23.60
2017-12-01T20:01:29.119Z,26.77
2017-12-01T20:03:56.685Z,24.97
2017-12-01T20:06:24.284Z,22.80
2017-12-01T20:08:51.836Z,26.63
2017-12-01T20:11:19.377Z,25.30
2017-12-01T20:13:46.973Z,24.77
2017-12-01T20:16:19.247Z,23.70
2017-12-01T20:18:46.851Z,24.13
2017-12-01T20:21:14.445Z,25.53
2017-12-01T20:23:42.063Z,35.80
2017-12-01T20:26:09.640Z,29.17
2017-12-01T20:28:37.338Z,24.67
2017-12-01T20:31:04.888Z,24.00
2017-12-01T20:33:32.420Z,26.37
2017-12-01T20:36:00.140Z,24.97
2017-12-01T20:38:28.070Z,23.43
2017-12-01T20:40:55.629Z,27.60
2017-12-01T20:43:24.322Z,24.53
2017-12-01T20:45:51.885Z,24.37
2017-12-01T20:48:19.560Z,25.77
2017-12-01T20:50:47.100Z,25.53
2017-12-01T20:53:14.638Z,22.33
2017-12-01T20:55:42.347Z,20.40
2017-12-01T20:58:09.871Z,21.87
2017-12-01T21:00:37.429Z,22.20
2017-12-01T21:03:05.081Z,24.10
2017-12-01T21:05:32.615Z,21.50
2017-12-01T21:08:00.161Z,26.30
2017-12-01T21:10:27.732Z,27.70
2017-12-01T21:12:55.264Z,22.57
2017-12-01T21:15:22.816Z,23.50
2017-12-01T21:17:50.349Z,28.10
2017-12-01T21:20:17.905Z,35.90
2017-12-01T21:22:45.444Z,28.70
2017-12-01T21:25:13.177Z,24.10
2017-12-01T21:27:40.725Z,24.73
2017-12-01T21:30:08.256Z,24.03
2017-12-01T21:32:35.819Z,23.30
2017-12-01T21:35:03.514Z,23.80
2017-12-01T21:37:31.088Z,25.63
2017-12-01T21:39:58.636Z,24.67
2017-12-01T21:42:26.379Z,25.90
2017-12-01T21:44:53.933Z,23.83
2017-12-01T21:47:21.485Z,25.27
2017-12-01T21:49:49.045Z,24.93
2017-12-01T21:52:16.708Z,23.53
2017-12-01T21:54:44.234Z,23.77
2017-12-01T21:57:11.757Z,24.27
2017-12-01T21:59:39.337Z,34.53
2017-12-01T22:02:06.857Z,26.87
2017-12-01T22:04:34.380Z,24.50
2017-12-01T22:07:02.063Z,24.70
2017-12-01T22:09:29.583Z,22.10
2017-12-01T22:11:57.114Z,23.63
2017-12-01T22:14:24.684Z,25.77
2017-12-01T22:16:52.219Z,23.93
2017-12-01T22:19:19.797Z,24.93
2017-12-01T22:21:47.344Z,22.30
2017-12-01T22:24:14.882Z,27.70
2017-12-01T22:26:42.469Z,24.70
2017-12-01T22:29:09.979Z,27.57
2017-12-01T22:31:37.532Z,29.57
2017-12-01T22:34:05.108Z,30.20
2017-12-01T22:36:32.661Z,31.07
2017-12-01T22:39:00.184Z,35.27
2017-12-01T22:41:27.752Z,26.53
2017-12-01T22:43:55.288Z,28.00
2017-12-01T22:46:22.981Z,31.07
2017-12-01T22:48:50.663Z,32.87
2017-12-01T22:51:18.204Z,31.87
2017-12-01T22:53:45.745Z,29.13
2017-12-01T22:56:13.476Z,34.63
2017-12-01T22:58:41.005Z,36.50
2017-12-01T23:01:08.596Z,38.13
2017-12-01T23:03:36.174Z,29.43
2017-12-01T23:06:03.695Z,32.23
2017-12-01T23:08:31.212Z,33.60
2017-12-01T23:10:58.755Z,31.57
2017-12-01T23:13:26.285Z,28.77
2017-12-01T23:15:53.886Z,39.67
2017-12-01T23:18:21.421Z,40.60
2017-12-01T23:20:48.960Z,29.00
2017-12-01T23:23:16.552Z,34.20
2017-12-01T23:25:44.089Z,32.73
2017-12-01T23:28:11.675Z,24.90
2017-12-01T23:30:39.244Z,35.47
2017-12-01T23:33:06.843Z,42.23
2017-12-01T23:35:34.381Z,61.20
2017-12-01T23:38:01.961Z,50.70
2017-12-01T23:40:29.488Z,35.60
2017-12-01T23:42:57.017Z,35.77
2017-12-01T23:45:24.612Z,35.23
2017-12-01T23:47:52.197Z,38.37
2017-12-01T23:50:19.731Z,41.23
2017-12-01T23:52:47.274Z,42.20
2017-12-01T23:55:14.829Z,41.13
2017-12-01T23:57:42.381Z,34.80
